Time;durP1;ratioP1;P1;durP2;ratioP2;P2;SDS_P1;SDS_P2;PMS_P1;PMS_P2;Temp;Humidity;BMP_temperature;BMP_pressure;BME280_temperature;BME280_humidity;BME280_pressure;Samples;Min_cycle;Max_cycle;Signal;HPM_P1;HPM_P2
2022/07/18 00:02:11;;;;;;;2.40;2.20;;;20.30;99.90;;;;;;4163180;28;20056;-81
2022/07/18 00:04:33;;;;;;;7.70;2.05;;;20.30;99.90;;;;;;4148553;28;20148;-81
2022/07/18 00:06:54;;;;;;;5.70;2.00;;;20.30;99.90;;;;;;4148811;28;20075;-81
2022/07/18 00:09:14;;;;;;;4.82;2.88;;;20.20;99.90;;;;;;4147978;28;20169;-81
2022/07/18 00:11:36;;;;;;;3.80;2.13;;;20.10;99.90;;;;;;4167612;28;20064;-81
2022/07/18 00:13:56;;;;;;;2.95;2.42;;;20.10;99.90;;;;;;4162874;28;20060;-81
2022/07/18 00:16:18;;;;;;;2.97;1.80;;;20.10;99.90;;;;;;4148408;28;20097;-81
2022/07/18 00:18:39;;;;;;;6.57;3.15;;;20.10;99.90;;;;;;4162440;28;20052;-81
2022/07/18 00:20:59;;;;;;;2.55;2.45;;;20.20;99.90;;;;;;4163000;28;20107;-82
2022/07/18 00:23:20;;;;;;;2.72;2.50;;;20.10;99.90;;;;;;4162635;28;20591;-81
2022/07/18 00:25:41;;;;;;;2.72;1.92;;;20.10;99.90;;;;;;4162827;28;20095;-81
2022/07/18 00:28:02;;;;;;;4.10;2.58;;;20.00;99.90;;;;;;4148198;28;20044;-81
2022/07/18 00:30:22;;;;;;;2.45;2.33;;;20.00;99.90;;;;;;4147731;28;20053;-81
2022/07/18 00:32:43;;;;;;;3.45;1.85;;;20.00;99.90;;;;;;4163127;28;20100;-81
2022/07/18 00:35:04;;;;;;;4.93;2.10;;;20.00;99.90;;;;;;4162636;28;20068;-81
2022/07/18 00:37:24;;;;;;;2.45;2.35;;;20.10;99.90;;;;;;4162697;28;20095;-81
2022/07/18 00:39:45;;;;;;;2.20;2.00;;;20.00;99.90;;;;;;4147714;28;20145;-81
2022/07/18 00:42:06;;;;;;;1.95;1.85;;;20.00;99.90;;;;;;4146469;28;20133;-82
2022/07/18 00:44:28;;;;;;;2.20;2.20;;;20.00;99.90;;;;;;4159620;28;20053;-82
2022/07/18 00:46:54;;;;;;;2.58;2.47;;;20.00;99.90;;;;;;4162782;28;20532;-80
2022/07/18 00:49:15;;;;;;;3.30;2.22;;;20.00;99.90;;;;;;4147854;28;20053;-81
2022/07/18 00:51:37;;;;;;;3.78;2.08;;;20.00;99.90;;;;;;4131400;28;20593;-81
2022/07/18 00:53:58;;;;;;;;;;;20.00;99.90;;;;;;4157174;28;20048;-81
2022/07/18 00:56:20;;;;;;;2.15;1.70;;;20.00;99.90;;;;;;4163430;28;20463;-81
2022/07/18 00:58:42;;;;;;;1.90;1.90;;;19.90;99.90;;;;;;4130607;28;20053;-81
2022/07/18 01:03:42;;;;;;;3.05;2.22;;;19.90;99.90;;;;;;4162412;28;20061;-81
2022/07/18 01:06:03;;;;;;;5.20;3.50;;;19.90;99.90;;;;;;4161889;28;20047;-81
2022/07/18 01:08:24;;;;;;;6.07;2.33;;;19.90;99.90;;;;;;4162406;28;20052;-81
2022/07/18 01:10:44;;;;;;;6.47;2.58;;;19.80;99.90;;;;;;4132302;28;20423;-81
2022/07/18 01:13:05;;;;;;;2.45;1.67;;;19.90;99.90;;;;;;4168382;28;20099;-81
2022/07/18 01:15:26;;;;;;;2.45;2.25;;;19.80;99.90;;;;;;4162198;28;20052;-81
2022/07/18 01:17:46;;;;;;;1.83;1.80;;;19.90;99.90;;;;;;4147144;28;20073;-81
2022/07/18 01:20:08;;;;;;;2.15;2.03;;;19.80;99.90;;;;;;4147312;28;20508;-81
2022/07/18 01:22:28;;;;;;;3.17;2.10;;;19.80;99.90;;;;;;4161801;28;20052;-81
2022/07/18 01:24:49;;;;;;;3.17;2.13;;;19.80;99.90;;;;;;4162207;28;20056;-80
2022/07/18 01:27:17;;;;;;;4.40;2.70;;;19.70;99.90;;;;;;4162363;28;20072;-81
2022/07/18 01:29:37;;;;;;;3.03;2.55;;;19.70;99.90;;;;;;4162123;28;20129;-81
2022/07/18 01:32:06;;;;;;;2.30;2.15;;;19.60;99.90;;;;;;4161876;28;20067;-81
2022/07/18 01:34:26;;;;;;;4.35;2.35;;;19.60;99.90;;;;;;4162234;28;20060;-81
2022/07/18 01:36:47;;;;;;;2.28;2.17;;;19.60;99.90;;;;;;4147018;28;20088;-81
2022/07/18 01:39:08;;;;;;;5.60;2.33;;;19.40;99.90;;;;;;4162105;28;20048;-80
2022/07/18 01:41:30;;;;;;;2.07;2.00;;;19.40;99.90;;;;;;4162002;28;20057;-81
2022/07/18 01:43:50;;;;;;;2.42;2.15;;;19.30;99.90;;;;;;4161849;28;20056;-81
2022/07/18 01:46:11;;;;;;;2.50;2.10;;;19.30;99.90;;;;;;4147049;28;20129;-81
2022/07/18 01:48:32;;;;;;;1.92;1.63;;;19.30;99.90;;;;;;4161783;28;20529;-81
2022/07/18 01:50:52;;;;;;;7.35;2.13;;;19.40;99.90;;;;;;4146990;28;20581;-81
2022/07/18 01:53:13;;;;;;;6.82;2.20;;;19.30;99.90;;;;;;4147135;28;20105;-81
2022/07/18 01:55:33;;;;;;;2.53;2.42;;;19.30;99.90;;;;;;4145895;28;20124;-81
2022/07/18 01:57:54;;;;;;;3.03;2.85;;;19.10;99.90;;;;;;4142451;28;20049;-81
2022/07/18 02:00:15;;;;;;;6.75;3.17;;;19.00;99.90;;;;;;4161606;28;20129;-81
2022/07/18 02:02:37;;;;;;;4.03;2.80;;;18.90;99.90;;;;;;4161809;28;20076;-81
2022/07/18 02:05:00;;;;;;;3.25;2.95;;;18.90;99.90;;;;;;4145488;28;20316;-81
2022/07/18 02:07:21;;;;;;;2.92;2.83;;;18.90;99.90;;;;;;4137747;28;20073;-81
2022/07/18 02:09:42;;;;;;;4.63;3.53;;;18.90;99.90;;;;;;4148971;28;20044;-81
2022/07/18 02:12:03;;;;;;;5.07;2.45;;;18.90;99.90;;;;;;4173104;28;20048;-81
2022/07/18 02:14:23;;;;;;;3.03;2.92;;;18.90;99.90;;;;;;4147079;28;20092;-81
2022/07/18 02:16:44;;;;;;;3.03;2.92;;;18.90;99.90;;;;;;4161689;28;20060;-81
2022/07/18 02:19:04;;;;;;;3.90;2.95;;;18.90;99.90;;;;;;4147551;28;20438;-81
2022/07/18 02:21:25;;;;;;;3.55;3.38;;;18.80;99.90;;;;;;4161745;28;20055;-81
2022/07/18 02:23:46;;;;;;;4.07;3.65;;;18.70;99.90;;;;;;4161626;28;20126;-81
2022/07/18 02:26:07;;;;;;;6.68;3.60;;;18.70;99.90;;;;;;4161538;28;20436;-81
2022/07/18 02:28:28;;;;;;;3.63;3.42;;;18.70;99.90;;;;;;4161784;28;20041;-81
2022/07/18 02:30:49;;;;;;;4.88;3.85;;;18.70;99.90;;;;;;4146710;28;20048;-81
2022/07/18 02:33:10;;;;;;;6.32;3.55;;;18.60;99.90;;;;;;4146817;28;20104;-81
2022/07/18 02:35:31;;;;;;;4.38;3.25;;;18.60;99.90;;;;;;4146697;28;20049;-81
2022/07/18 02:37:51;;;;;;;3.65;3.35;;;18.60;99.90;;;;;;4161517;28;20056;-81
2022/07/18 02:40:12;;;;;;;3.35;2.67;;;18.60;99.90;;;;;;4145823;28;20702;-81
2022/07/18 02:42:33;;;;;;;3.20;2.47;;;18.70;99.90;;;;;;4156556;28;20133;-81
2022/07/18 02:44:53;;;;;;;5.30;3.42;;;18.70;99.90;;;;;;4150003;28;20051;-81
2022/07/18 02:47:14;;;;;;;2.83;2.63;;;18.70;99.90;;;;;;4161732;28;20525;-81
2022/07/18 02:49:35;;;;;;;2.70;2.53;;;18.70;99.90;;;;;;4164480;28;20049;-81
2022/07/18 02:52:02;;;;;;;2.10;2.10;;;18.80;99.90;;;;;;4149255;28;20145;-81
2022/07/18 02:54:24;;;;;;;2.13;2.13;;;18.70;99.90;;;;;;4164517;28;20413;-81
2022/07/18 02:56:45;;;;;;;3.13;2.28;;;18.70;99.90;;;;;;4149676;28;20114;-81
2022/07/18 02:59:07;;;;;;;4.32;2.22;;;18.70;99.90;;;;;;4133508;28;20520;-81
2022/07/18 03:01:28;;;;;;;2.50;2.38;;;18.70;99.90;;;;;;4157588;28;20127;-81
2022/07/18 03:03:48;;;;;;;4.10;2.45;;;18.70;99.90;;;;;;4164410;28;20575;-80
2022/07/18 03:06:09;;;;;;;4.65;2.55;;;18.70;99.90;;;;;;4164294;28;20077;-81
2022/07/18 03:08:31;;;;;;;2.40;2.25;;;18.60;99.90;;;;;;4164024;28;20162;-81
2022/07/18 03:10:52;;;;;;;2.35;2.25;;;18.70;99.90;;;;;;4150676;28;20085;-80
2022/07/18 03:13:13;;;;;;;3.70;2.55;;;18.70;99.90;;;;;;4163924;28;20096;-81
2022/07/18 03:15:34;;;;;;;2.42;2.33;;;18.70;99.90;;;;;;4164357;28;20100;-81
2022/07/18 03:17:54;;;;;;;3.45;3.25;;;18.70;99.90;;;;;;4163685;28;20515;-81
2022/07/18 03:20:15;;;;;;;3.80;2.78;;;18.70;99.90;;;;;;4149084;28;20493;-81
2022/07/18 03:22:36;;;;;;;2.50;2.33;;;18.60;99.90;;;;;;4163776;28;20072;-81
2022/07/18 03:24:56;;;;;;;3.67;3.40;;;18.60;99.90;;;;;;4147823;28;20109;-81
2022/07/18 03:27:17;;;;;;;4.22;3.28;;;18.70;99.90;;;;;;4159550;28;20060;-81
2022/07/18 03:29:37;;;;;;;3.13;2.92;;;18.50;99.90;;;;;;4164065;28;20060;-81
2022/07/18 03:31:58;;;;;;;3.42;3.10;;;18.50;99.90;;;;;;4149184;28;20108;-81
2022/07/18 03:34:19;;;;;;;5.38;3.13;;;18.50;99.90;;;;;;4132843;28;20049;-81
2022/07/18 03:36:40;;;;;;;3.78;3.33;;;18.40;99.90;;;;;;4142885;28;20052;-81
2022/07/18 03:39:01;;;;;;;7.18;3.80;;;18.30;99.90;;;;;;4163410;28;20059;-80
2022/07/18 03:41:22;;;;;;;5.00;3.13;;;18.10;99.90;;;;;;4163629;28;20056;-81
2022/07/18 03:43:43;;;;;;;3.22;3.13;;;18.10;99.90;;;;;;4148686;28;20048;-81
2022/07/18 03:46:04;;;;;;;4.15;3.80;;;18.00;99.90;;;;;;4148751;28;20791;-80
2022/07/18 03:48:24;;;;;;;3.60;3.40;;;18.00;99.90;;;;;;4163586;28;20444;-80
2022/07/18 03:50:45;;;;;;;5.75;3.63;;;18.00;99.90;;;;;;4162271;28;20080;-80
2022/07/18 03:53:06;;;;;;;6.57;3.97;;;18.00;99.90;;;;;;4148320;28;20552;-81
2022/07/18 03:55:26;;;;;;;4.25;3.60;;;18.10;99.90;;;;;;4148800;28;20123;-81
2022/07/18 03:57:47;;;;;;;5.72;3.67;;;18.10;99.90;;;;;;4148448;28;20157;-80
2022/07/18 04:00:09;;;;;;;3.45;3.35;;;18.10;99.90;;;;;;4148636;28;20057;-80
2022/07/18 04:02:29;;;;;;;3.28;2.90;;;18.10;99.90;;;;;;4163135;28;20117;-80
2022/07/18 04:04:50;;;;;;;3.38;3.08;;;18.20;99.90;;;;;;4148425;28;20053;-81
2022/07/18 04:07:10;;;;;;;3.45;2.90;;;18.20;99.90;;;;;;4163082;28;20076;-80
2022/07/18 04:09:31;;;;;;;2.75;2.47;;;18.10;99.90;;;;;;4132338;28;20097;-80
2022/07/18 04:11:51;;;;;;;3.65;3.08;;;18.10;99.90;;;;;;4167845;28;20053;-80
2022/07/18 04:14:12;;;;;;;3.40;2.85;;;18.20;99.90;;;;;;4160159;28;20496;-81
2022/07/18 04:16:32;;;;;;;4.32;2.50;;;18.20;99.90;;;;;;4163387;28;20169;-81
2022/07/18 04:18:54;;;;;;;2.80;2.70;;;18.10;99.90;;;;;;4162901;28;20595;-80
2022/07/18 04:21:15;;;;;;;3.38;2.78;;;18.10;99.90;;;;;;4163041;28;20060;-81
2022/07/18 04:23:35;;;;;;;3.50;3.13;;;18.20;99.90;;;;;;4156002;28;20143;-81
2022/07/18 04:25:58;;;;;;;3.10;2.97;;;18.20;99.90;;;;;;4146144;28;20145;-80
2022/07/18 04:28:19;;;;;;;3.38;3.13;;;18.20;99.90;;;;;;4145094;28;20085;-81
2022/07/18 04:30:42;;;;;;;4.72;4.30;;;18.20;99.90;;;;;;4154117;28;20043;-82
2022/07/18 04:33:04;;;;;;;4.55;3.83;;;18.20;99.90;;;;;;4146556;28;20593;-80
2022/07/18 04:35:24;;;;;;;4.25;2.67;;;18.30;99.90;;;;;;4146998;28;20052;-83
2022/07/18 04:37:46;;;;;;;3.42;3.22;;;18.20;99.90;;;;;;4161211;28;20064;-83
2022/07/18 04:40:08;;;;;;;2.97;2.88;;;18.30;99.90;;;;;;4161770;28;20060;-83
2022/07/18 04:42:30;;;;;;;4.33;3.00;;;18.30;99.90;;;;;;4145986;28;20556;-82
2022/07/18 04:44:51;;;;;;;3.00;2.80;;;18.30;99.90;;;;;;4130482;28;20284;-82
2022/07/18 04:47:11;;;;;;;4.82;2.83;;;18.30;99.90;;;;;;4143185;28;20052;-83
2022/07/18 04:49:32;;;;;;;3.47;3.38;;;18.30;99.90;;;;;;4146516;28;20056;-80
2022/07/18 04:51:53;;;;;;;5.07;2.80;;;18.30;99.90;;;;;;4146807;28;20045;-83
2022/07/18 04:54:13;;;;;;;3.60;3.40;;;18.30;99.90;;;;;;4144724;28;20060;-83
2022/07/18 04:56:33;;;;;;;2.97;2.70;;;18.30;99.90;;;;;;4140047;28;20491;-83
2022/07/18 04:58:54;;;;;;;4.15;2.45;;;18.30;99.90;;;;;;4155808;28;20495;-82
2022/07/18 05:01:15;;;;;;;6.25;3.30;;;18.30;99.90;;;;;;4161435;28;20065;-83
2022/07/18 05:03:36;;;;;;;2.92;2.55;;;18.40;99.90;;;;;;4135823;28;20136;-83
2022/07/18 05:05:57;;;;;;;2.88;2.65;;;18.40;99.90;;;;;;4146586;28;20116;-83
2022/07/18 05:08:18;;;;;;;3.42;3.17;;;18.50;99.90;;;;;;4160893;28;20096;-83
2022/07/18 05:10:39;;;;;;;4.20;3.20;;;18.50;99.90;;;;;;4160764;28;20133;-82
2022/07/18 05:12:59;;;;;;;4.28;3.83;;;18.40;99.90;;;;;;4160130;28;20065;-82
2022/07/18 05:15:22;;;;;;;3.85;3.67;;;18.40;99.90;;;;;;4145942;28;20548;-82
2022/07/18 05:17:43;;;;;;;5.38;3.63;;;18.50;99.90;;;;;;4145650;28;20153;-83
2022/07/18 05:20:05;;;;;;;4.65;4.35;;;18.50;99.90;;;;;;4160983;28;20060;-86
2022/07/18 05:22:26;;;;;;;4.18;3.45;;;18.50;99.90;;;;;;4144790;28;20084;-87
2022/07/18 05:24:46;;;;;;;4.55;3.28;;;18.50;99.90;;;;;;4161085;28;20105;-87
2022/07/18 05:27:07;;;;;;;4.55;3.95;;;18.60;99.90;;;;;;4145809;28;20060;-85
2022/07/18 05:29:28;;;;;;;2.97;2.75;;;18.60;99.90;;;;;;4157584;28;20622;-86
2022/07/18 05:31:49;;;;;;;2.75;2.65;;;18.80;99.90;;;;;;4168013;28;20059;-86
2022/07/18 05:34:09;;;;;;;3.75;3.33;;;18.80;99.90;;;;;;4155821;28;20165;-86
2022/07/18 05:36:30;;;;;;;5.82;2.95;;;18.90;99.90;;;;;;4157767;28;20056;-86
2022/07/18 05:38:52;;;;;;;5.60;3.55;;;18.90;99.90;;;;;;4129978;28;20128;-87
2022/07/18 05:41:14;;;;;;;3.35;3.10;;;19.00;99.90;;;;;;4141405;28;20109;-87
2022/07/18 05:43:34;;;;;;;4.57;3.38;;;19.00;99.90;;;;;;4161104;28;20605;-87
2022/07/18 05:45:56;;;;;;;4.88;3.22;;;19.10;99.90;;;;;;4161385;28;20090;-87
2022/07/18 05:48:17;;;;;;;2.60;2.40;;;19.10;99.90;;;;;;4130439;28;20065;-87
2022/07/18 05:50:37;;;;;;;3.35;3.05;;;19.20;99.90;;;;;;4141876;28;20608;-87
2022/07/18 05:52:58;;;;;;;2.67;2.58;;;19.30;99.90;;;;;;4146149;28;20593;-87
2022/07/18 05:55:19;;;;;;;3.00;2.80;;;19.40;99.90;;;;;;4161316;28;20673;-87
2022/07/18 05:57:41;;;;;;;1.75;1.75;;;19.50;99.90;;;;;;4161161;28;20107;-88
2022/07/18 06:00:07;;;;;;;3.08;1.73;;;19.60;99.90;;;;;;4146270;28;20088;-88
2022/07/18 06:02:27;;;;;;;1.65;1.60;;;19.70;99.90;;;;;;4161382;28;20099;-88
2022/07/18 06:04:48;;;;;;;1.35;1.35;;;19.80;99.90;;;;;;4146349;28;20065;-87
2022/07/18 06:07:30;;;;;;;2.03;1.92;;;19.90;99.90;;;;;;4161063;28;20057;-87
2022/07/18 06:09:51;;;;;;;2.60;2.50;;;20.00;99.90;;;;;;4160892;28;20103;-87
2022/07/18 06:12:11;;;;;;;2.85;2.13;;;20.10;99.90;;;;;;4169288;28;20508;-88
2022/07/18 06:14:32;;;;;;;1.92;1.83;;;20.20;99.90;;;;;;4161217;28;20048;-88
2022/07/18 06:16:52;;;;;;;2.33;2.17;;;20.20;99.90;;;;;;4145926;28;20141;-87
2022/07/18 06:19:13;;;;;;;1.88;1.77;;;20.40;99.90;;;;;;4161311;28;20056;-87
2022/07/18 06:21:40;;;;;;;1.95;1.63;;;20.50;99.90;;;;;;4147482;28;20052;-87
2022/07/18 06:24:01;;;;;;;5.00;2.13;;;20.60;99.90;;;;;;4163971;28;20100;-86
2022/07/18 06:26:23;;;;;;;3.50;2.47;;;20.70;99.90;;;;;;4149092;28;20049;-87
2022/07/18 06:28:43;;;;;;;1.95;1.85;;;20.80;99.90;;;;;;4149079;28;20740;-87
2022/07/18 06:31:08;;;;;;;1.70;1.58;;;20.90;99.90;;;;;;4149570;28;20139;-87
2022/07/18 06:33:30;;;;;;;3.15;2.20;;;21.00;99.90;;;;;;4164166;28;20052;-87
2022/07/18 06:35:50;;;;;;;4.40;1.90;;;21.30;99.90;;;;;;4163823;28;20069;-87
2022/07/18 06:38:11;;;;;;;1.77;1.67;;;21.50;99.90;;;;;;4163802;28;20123;-87
2022/07/18 06:40:31;;;;;;;2.35;1.60;;;21.60;99.90;;;;;;4149282;28;20687;-88
2022/07/18 06:42:53;;;;;;;4.72;1.52;;;21.70;99.90;;;;;;4164027;28;20060;-87
2022/07/18 06:45:14;;;;;;;1.83;1.70;;;21.90;99.90;;;;;;4163975;28;20449;-88
2022/07/18 06:47:35;;;;;;;2.13;1.40;;;22.00;99.90;;;;;;4163671;28;20048;-87
2022/07/18 06:49:58;;;;;;;1.20;1.20;;;22.20;99.90;;;;;;4149344;28;20048;-88
2022/07/18 06:52:18;;;;;;;;;;;22.40;99.90;;;;;;4147980;28;20122;-87
2022/07/18 06:54:40;;;;;;;1.05;1.05;;;22.50;99.90;;;;;;4159962;28;19931;-87
2022/07/18 06:57:06;;;;;;;2.25;1.30;;;22.80;99.90;;;;;;4148936;28;20056;-88
2022/07/18 06:59:27;;;;;;;2.65;1.50;;;22.80;99.90;;;;;;4148718;28;20588;-88
2022/07/18 07:01:48;;;;;;;1.65;1.45;;;22.90;99.90;;;;;;4147399;28;20060;-89
2022/07/18 07:04:09;;;;;;;2.55;1.20;;;23.10;99.90;;;;;;4159028;28;20052;-87
2022/07/18 07:06:30;;;;;;;1.10;1.00;;;23.30;99.90;;;;;;4148763;28;20064;-86
2022/07/18 07:08:51;;;;;;;1.35;0.90;;;23.40;99.90;;;;;;4163860;28;20060;-87
2022/07/18 07:11:12;;;;;;;1.50;0.90;;;23.50;99.90;;;;;;4136493;28;20097;-87
2022/07/18 07:13:33;;;;;;;1.00;1.00;;;23.60;99.90;;;;;;4163265;28;20533;-88
2022/07/18 07:15:54;;;;;;;1.50;0.90;;;23.80;99.90;;;;;;4163402;28;20095;-87
2022/07/18 07:18:16;;;;;;;3.38;1.00;;;24.00;99.90;;;;;;4148428;28;20215;-88
2022/07/18 07:20:37;;;;;;;0.70;0.70;;;24.30;99.90;;;;;;4163097;28;20047;-88
2022/07/18 07:22:57;;;;;;;1.15;0.90;;;24.50;99.90;;;;;;4162935;28;20132;-85
2022/07/18 07:25:20;;;;;;;3.80;0.90;;;24.60;99.90;;;;;;4163249;28;20130;-85
2022/07/18 07:27:41;;;;;;;1.00;0.90;;;24.80;99.90;;;;;;4162751;28;20523;-85
2022/07/18 07:30:03;;;;;;;2.20;0.90;;;25.00;99.90;;;;;;4148342;28;20071;-85
2022/07/18 07:32:24;;;;;;;1.95;1.25;;;25.20;99.90;;;;;;4162956;28;20055;-85
2022/07/18 07:34:45;;;;;;;1.38;0.80;;;25.30;99.90;;;;;;4147278;28;20052;-85
2022/07/18 07:37:06;;;;;;;1.15;0.93;;;25.70;99.90;;;;;;4148374;28;20052;-85
2022/07/18 07:39:27;;;;;;;2.60;0.80;;;25.80;99.90;;;;;;4163096;28;20060;-85
2022/07/18 07:41:48;;;;;;;8.80;1.05;;;26.10;99.90;;;;;;4162698;28;20104;-85
2022/07/18 07:44:12;;;;;;;5.07;0.75;;;26.20;99.90;;;;;;4162734;28;20052;-85
2022/07/18 07:46:32;;;;;;;1.73;0.80;;;26.50;99.90;;;;;;4131865;28;20053;-85
2022/07/18 07:48:53;;;;;;;2.15;0.77;;;26.70;99.90;;;;;;4158642;28;20076;-85
2022/07/18 07:51:14;;;;;;;0.90;0.70;;;26.70;99.90;;;;;;4162664;28;20048;-86
2022/07/18 07:53:35;;;;;;;0.73;0.73;;;26.90;99.90;;;;;;4148064;28;20049;-85
2022/07/18 07:55:57;;;;;;;0.70;0.70;;;27.10;99.90;;;;;;4131675;28;20045;-85
2022/07/18 07:58:17;;;;;;;2.17;0.70;;;27.40;99.90;;;;;;4157017;28;20056;-86
2022/07/18 08:00:38;;;;;;;2.25;0.63;;;27.50;99.90;;;;;;4147458;28;20182;-85
2022/07/18 08:03:04;;;;;;;1.63;0.68;;;27.70;99.90;;;;;;4162517;28;20480;-85
2022/07/18 08:05:26;;;;;;;1.30;0.60;;;28.20;99.90;;;;;;4146340;28;20622;-86
2022/07/18 08:07:48;;;;;;;3.30;0.70;;;28.60;99.90;;;;;;4141285;28;20056;-85
2022/07/18 08:10:10;;;;;;;0.60;0.60;;;28.70;99.90;;;;;;4162362;28;20056;-86
2022/07/18 08:12:30;;;;;;;0.60;0.60;;;28.70;99.10;;;;;;4176990;28;20179;-85
2022/07/18 08:14:51;;;;;;;0.50;0.50;;;28.80;98.80;;;;;;4147441;28;20137;-85
2022/07/18 08:17:12;;;;;;;3.15;0.50;;;28.80;96.70;;;;;;4161338;28;20045;-85
2022/07/18 08:19:33;;;;;;;5.93;0.50;;;28.80;95.80;;;;;;4147186;28;20096;-86
2022/07/18 08:21:54;;;;;;;1.63;0.50;;;28.90;94.20;;;;;;4147355;28;20096;-85
2022/07/18 08:24:15;;;;;;;1.35;0.50;;;28.90;93.10;;;;;;4147262;28;20138;-86
2022/07/18 08:26:38;;;;;;;0.77;0.50;;;28.80;93.30;;;;;;4147371;28;20045;-86
2022/07/18 08:28:59;;;;;;;0.50;0.47;;;29.00;93.40;;;;;;4147150;28;20477;-85
2022/07/18 08:31:20;;;;;;;1.45;0.50;;;29.30;92.40;;;;;;4147155;28;20707;-86
2022/07/18 08:33:49;;;;;;;1.40;0.40;;;29.30;92.30;;;;;;4162357;28;20053;-86
2022/07/18 08:36:11;;;;;;;0.50;0.50;;;29.50;92.80;;;;;;4162546;28;20064;-86
2022/07/18 08:38:32;;;;;;;0.68;0.50;;;29.40;92.30;;;;;;4147079;28;20141;-86
2022/07/18 08:40:55;;;;;;;0.57;0.52;;;29.60;92.00;;;;;;4162069;28;20053;-86
2022/07/18 08:43:15;;;;;;;0.52;0.52;;;29.70;92.40;;;;;;4161797;28;20140;-86
2022/07/18 08:45:43;;;;;;;1.15;0.40;;;29.70;91.00;;;;;;4160706;28;20088;-85
2022/07/18 08:48:04;;;;;;;0.50;0.50;;;29.90;92.00;;;;;;4146735;28;20053;-86
2022/07/18 08:50:26;;;;;;;0.50;0.50;;;30.20;90.00;;;;;;4147044;28;20413;-86
2022/07/18 08:52:47;;;;;;;0.40;0.40;;;30.10;90.80;;;;;;4161881;28;20963;-86
2022/07/18 08:55:14;;;;;;;1.20;0.40;;;30.00;91.40;;;;;;4154921;28;20172;-86
2022/07/18 08:57:44;;;;;;;0.50;0.50;;;29.90;90.50;;;;;;4148380;28;20532;-86
2022/07/18 09:00:08;;;;;;;0.40;0.40;;;30.10;89.50;;;;;;4147395;28;20085;-86
2022/07/18 09:02:30;;;;;;;0.40;0.40;;;29.90;89.00;;;;;;4147022;28;20109;-86
2022/07/18 09:04:51;;;;;;;0.47;0.47;;;30.10;90.20;;;;;;4161839;28;20775;-86
2022/07/18 09:07:36;;;;;;;2.50;0.50;;;30.30;89.90;;;;;;4149622;28;20061;-86
2022/07/18 09:10:02;;;;;;;0.60;0.50;;;30.20;89.00;;;;;;4161854;28;20072;-86
2022/07/18 09:12:25;;;;;;;0.40;0.40;;;30.20;89.00;;;;;;4172775;28;20051;-85
2022/07/18 09:14:49;;;;;;;0.40;0.40;;;30.40;86.30;;;;;;4167146;28;20643;-86
2022/07/18 09:17:25;;;;;;;2.17;0.40;;;30.80;90.40;;;;;;4161510;28;20460;-86
2022/07/18 09:20:11;;;;;;;0.40;0.40;;;31.20;90.00;;;;;;4160511;28;20048;-85
2022/07/18 09:22:36;;;;;;;1.30;0.40;;;31.20;87.80;;;;;;4149793;28;20075;-86
2022/07/18 09:25:04;;;;;;;0.40;0.40;;;31.10;86.00;;;;;;4162622;28;20133;-86
2022/07/18 09:27:39;;;;;;;1.70;0.47;;;31.00;85.50;;;;;;4147499;28;20092;-86
2022/07/18 09:30:28;;;;;;;1.73;0.40;;;31.30;85.90;;;;;;4161258;28;20823;-86
2022/07/18 09:33:05;;;;;;;0.95;0.40;;;31.50;87.30;;;;;;4146350;28;20056;-86
2022/07/18 09:35:28;;;;;;;6.75;0.60;;;31.70;88.30;;;;;;4146180;28;20144;-85
2022/07/18 09:38:07;;;;;;;1.65;0.52;;;31.60;84.70;;;;;;4170136;28;20056;-86
2022/07/18 09:40:47;;;;;;;3.20;0.50;;;31.60;83.40;;;;;;4165406;28;20056;-85
2022/07/18 09:43:17;;;;;;;0.40;0.40;;;31.60;83.60;;;;;;4156192;28;20147;-86
2022/07/18 09:45:41;;;;;;;2.63;0.40;;;31.60;88.20;;;;;;4146469;28;20108;-85
2022/07/18 09:48:05;;;;;;;0.40;0.40;;;31.90;81.90;;;;;;4130094;28;20057;-86
2022/07/18 09:50:42;;;;;;;1.20;0.40;;;31.80;81.30;;;;;;4160236;28;20858;-86
2022/07/18 09:53:19;;;;;;;0.85;0.40;;;31.80;83.10;;;;;;4160166;28;20056;-86
2022/07/18 09:56:11;;;;;;;0.40;0.40;;;31.80;84.30;;;;;;4154987;28;20478;-86
2022/07/18 09:58:54;;;;;;;2.30;0.50;;;32.10;84.80;;;;;;4148368;28;20119;-86
2022/07/18 10:01:15;;;;;;;0.40;0.40;;;32.00;81.80;;;;;;4159451;28;20124;-86
2022/07/18 10:03:37;;;;;;;0.40;0.40;;;32.00;81.60;;;;;;4140630;28;20117;-86
2022/07/18 10:05:59;;;;;;;0.35;0.35;;;32.30;80.60;;;;;;4159390;28;20230;-86
2022/07/18 10:08:23;;;;;;;0.40;0.40;;;31.70;79.10;;;;;;4139942;28;20077;-86
2022/07/18 10:10:45;;;;;;;0.40;0.40;;;31.80;80.70;;;;;;4160104;28;20599;-86
2022/07/18 10:13:07;;;;;;;1.33;0.40;;;31.60;78.20;;;;;;4151724;28;20497;-86
2022/07/18 10:15:32;;;;;;;0.43;0.30;;;31.80;81.20;;;;;;4144411;28;20056;-86
2022/07/18 10:17:52;;;;;;;1.48;0.40;;;32.20;82.10;;;;;;4161741;28;20103;-86
2022/07/18 10:20:13;;;;;;;0.40;0.40;;;32.60;81.60;;;;;;4146659;28;20129;-86
2022/07/18 10:22:43;;;;;;;1.17;0.35;;;32.70;82.30;;;;;;4152302;28;20523;-86
2022/07/18 10:25:05;;;;;;;0.30;0.30;;;32.70;78.50;;;;;;4169133;28;20662;-86
2022/07/18 10:27:45;;;;;;;0.40;0.40;;;32.70;78.00;;;;;;4138379;28;20085;-86
2022/07/18 10:30:11;;;;;;;1.33;0.40;;;32.30;77.30;;;;;;4159107;28;20610;-86
2022/07/18 10:32:33;;;;;;;2.83;0.40;;;32.10;79.70;;;;;;4146102;28;20060;-86
2022/07/18 10:34:54;;;;;;;0.40;0.40;;;32.20;79.10;;;;;;4145753;28;20049;-86
2022/07/18 10:37:24;;;;;;;0.50;0.50;;;32.50;80.60;;;;;;4154844;28;20048;-86
2022/07/18 10:39:45;;;;;;;0.40;0.40;;;32.90;79.20;;;;;;4150593;28;20068;-86
2022/07/18 10:42:08;;;;;;;0.73;0.30;;;33.10;78.00;;;;;;4153898;28;20056;-86
2022/07/18 10:44:29;;;;;;;0.40;0.40;;;33.20;79.00;;;;;;4153226;28;20071;-86
2022/07/18 10:47:15;;;;;;;0.77;0.40;;;33.20;80.50;;;;;;4156253;28;20733;-86
2022/07/18 10:49:48;;;;;;;2.08;0.40;;;33.30;79.70;;;;;;4155805;28;20441;-85
2022/07/18 10:52:28;;;;;;;1.20;0.40;;;33.60;80.60;;;;;;4156207;28;20121;-86
2022/07/18 10:57:23;;;;;;;0.40;0.32;;;33.90;78.00;;;;;;4157350;28;20139;-86
2022/07/18 11:00:08;;;;;;;0.75;0.30;;;33.80;76.80;;;;;;4158054;28;20586;-86
2022/07/18 11:02:36;;;;;;;0.47;0.40;;;34.00;77.40;;;;;;4148792;28;20115;-86
2022/07/18 11:04:57;;;;;;;0.40;0.40;;;34.10;78.60;;;;;;4163956;28;20108;-86
2022/07/18 11:07:18;;;;;;;0.40;0.40;;;33.90;76.00;;;;;;4163721;28;20121;-87
2022/07/18 11:09:41;;;;;;;0.30;0.30;;;33.60;75.20;;;;;;4158506;28;20104;-86
2022/07/18 11:12:21;;;;;;;0.30;0.30;;;33.80;78.20;;;;;;4147348;28;20902;-86
2022/07/18 11:15:13;;;;;;;0.35;0.35;;;34.20;77.00;;;;;;4154143;28;20049;-87
2022/07/18 11:18:01;;;;;;;2.10;0.40;;;34.40;75.00;;;;;;4154901;28;20044;-87
2022/07/18 11:20:56;;;;;;;2.92;0.40;;;34.50;75.40;;;;;;4160579;28;20048;-86
2022/07/18 11:23:20;;;;;;;0.77;0.40;;;34.10;75.40;;;;;;4098754;28;20106;-86
2022/07/18 11:25:41;;;;;;;0.30;0.30;;;34.30;78.50;;;;;;4123254;28;20741;-87
2022/07/18 11:28:18;;;;;;;0.30;0.30;;;34.50;77.70;;;;;;4116319;28;20049;-86
2022/07/18 11:30:40;;;;;;;1.77;0.38;;;34.40;78.00;;;;;;4110813;28;20050;-86
2022/07/18 11:33:01;;;;;;;;;;;34.50;77.00;;;;;;4105876;28;20054;-86
2022/07/18 11:35:23;;;;;;;0.40;0.40;;;34.40;73.20;;;;;;4126618;28;19980;-86
2022/07/18 11:37:49;;;;;;;;;;;34.20;75.00;;;;;;4115561;28;20497;-86
2022/07/18 11:40:11;;;;;;;0.40;0.40;;;34.30;75.20;;;;;;4121069;28;20012;-82
2022/07/18 11:42:37;;;;;;;2.58;0.40;;;34.30;77.20;;;;;;4115890;28;20061;-82
2022/07/18 11:44:58;;;;;;;1.42;0.40;;;34.50;73.80;;;;;;4110904;28;20117;-82
2022/07/18 11:47:19;;;;;;;1.23;0.35;;;34.30;75.60;;;;;;4127170;28;20056;-82
2022/07/18 11:49:40;;;;;;;0.35;0.35;;;34.30;76.20;;;;;;4127096;28;20434;-83
2022/07/18 11:52:01;;;;;;;3.03;0.47;;;34.50;74.10;;;;;;4111383;28;20149;-83
2022/07/18 11:54:23;;;;;;;0.38;0.38;;;34.50;73.20;;;;;;4106412;28;20075;-83
2022/07/18 11:56:53;;;;;;;0.40;0.40;;;34.70;73.60;;;;;;4115677;28;20070;-83
2022/07/18 11:59:15;;;;;;;1.50;0.30;;;34.60;72.80;;;;;;4119450;28;20065;-83
2022/07/18 12:01:35;;;;;;;0.82;0.32;;;34.70;73.20;;;;;;4133042;28;20109;-83
2022/07/18 12:03:56;;;;;;;0.30;0.30;;;34.80;72.20;;;;;;4162156;28;20136;-83
2022/07/18 12:06:20;;;;;;;1.33;0.30;;;34.60;73.70;;;;;;4160932;28;20052;-83
2022/07/18 12:08:45;;;;;;;1.08;0.35;;;35.10;71.90;;;;;;4146770;28;20097;-83
2022/07/18 12:11:10;;;;;;;2.40;0.40;;;35.40;70.80;;;;;;4163458;28;20794;-83
2022/07/18 12:13:51;;;;;;;0.35;0.30;;;35.30;71.90;;;;;;4166826;28;20123;-83
2022/07/18 12:16:26;;;;;;;0.30;0.30;;;35.10;68.60;;;;;;4161174;28;20585;-83
2022/07/18 12:18:59;;;;;;;2.63;0.45;;;34.70;71.30;;;;;;4161225;28;20497;-82
2022/07/18 12:21:20;;;;;;;3.33;0.40;;;34.40;71.10;;;;;;4161676;28;20061;-83
2022/07/18 12:23:41;;;;;;;0.50;0.50;;;34.40;69.80;;;;;;4160934;28;20057;-82
2022/07/18 12:26:02;;;;;;;0.32;0.30;;;34.60;73.40;;;;;;4161865;28;20056;-82
2022/07/18 12:28:25;;;;;;;0.32;0.32;;;35.00;73.20;;;;;;4146740;28;20116;-83
2022/07/18 12:30:46;;;;;;;0.40;0.40;;;35.10;70.20;;;;;;4161242;28;20056;-83
2022/07/18 12:33:11;;;;;;;0.30;0.30;;;35.10;70.60;;;;;;4161531;28;20048;-83